Time;durP1;ratioP1;P1;durP2;ratioP2;P2;SDS_P1;SDS_P2;PMS_P1;PMS_P2;Temp;Humidity;BMP_temperature;BMP_pressure;BME280_temperature;BME280_humidity;BME280_pressure;Samples;Min_cycle;Max_cycle;Signal;HPM_P1;HPM_P2
2021/04/21 00:00:39;;;;;;;45.42;31.15;;;281.60;2073.60;;;;;;4955248;29;20515;-71
2021/04/21 00:03:05;;;;;;;43.58;30.58;;;256.90;2073.60;;;;;;5003922;28;20385;-72
2021/04/21 00:05:32;;;;;;;46.22;30.52;;;256.80;2073.60;;;;;;5055165;28;20530;-71
2021/04/21 00:07:59;;;;;;;42.88;30.23;;;256.80;2073.60;;;;;;5054990;28;20440;-72
2021/04/21 00:10:27;;;;;;;44.13;30.45;;;256.80;2073.60;;;;;;5055300;28;20432;-72
2021/04/21 00:12:55;;;;;;;41.72;30.23;;;256.70;2073.60;;;;;;5055030;28;20458;-71
2021/04/21 00:15:24;;;;;;;39.80;30.17;;;256.70;2073.60;;;;;;5054989;28;20476;-72
2021/04/21 00:17:55;;;;;;;42.10;30.67;;;256.70;2073.60;;;;;;5055023;28;20513;-71
2021/04/21 00:20:23;;;;;;;44.15;30.92;;;256.60;2099.20;;;;;;5054971;28;20377;-72
2021/04/21 00:22:55;;;;;;;43.05;30.83;;;256.60;2073.60;;;;;;5055147;28;20343;-71
2021/04/21 00:25:22;;;;;;;45.67;31.55;;;256.60;2073.60;;;;;;5054899;28;20513;-72
2021/04/21 00:27:52;;;;;;;46.50;31.25;;;256.60;2073.60;;;;;;5054685;28;20470;-72
2021/04/21 00:30:23;;;;;;;41.63;30.65;;;256.60;2073.60;;;;;;5054673;28;20477;-71
2021/04/21 00:32:51;;;;;;;40.08;30.60;;;256.50;2099.20;;;;;;5055059;28;20405;-72
2021/04/21 00:35:29;;;;;;;44.35;31.98;;;256.50;2073.60;;;;;;5054863;28;20462;-71
2021/04/21 00:38:02;;;;;;;42.40;31.00;;;256.30;2099.20;;;;;;5054630;28;20363;-72
2021/04/21 00:40:38;;;;;;;42.67;31.10;;;256.30;2099.20;;;;;;5054573;28;20401;-72
2021/04/21 00:43:14;;;;;;;43.83;32.20;;;256.30;2099.20;;;;;;5054492;28;20382;-72
2021/04/21 00:45:46;;;;;;;42.90;31.60;;;256.20;2124.80;;;;;;5054450;28;20382;-72
2021/04/21 00:48:36;;;;;;;42.20;30.10;;;256.00;2150.40;;;;;;5036551;28;20469;-72
2021/04/21 00:51:11;;;;;;;40.38;29.30;;;256.00;2150.40;;;;;;5054641;28;20411;-71
2021/04/21 00:53:48;;;;;;;40.50;30.30;;;256.00;2124.80;;;;;;5054303;28;20392;-71
2021/04/21 00:56:37;;;;;;;41.42;28.30;;;256.00;2150.40;;;;;;5054247;28;20462;-72
2021/04/21 00:59:32;;;;;;;38.22;28.08;;;256.00;2150.40;;;;;;5054133;28;20369;-71
2021/04/21 01:02:02;;;;;;;41.72;29.30;;;256.10;2150.40;;;;;;5053895;28;20351;-71
2021/04/21 01:04:28;;;;;;;39.80;28.08;;;256.00;2176.00;;;;;;5053195;28;20400;-73
2021/04/21 01:06:55;;;;;;;38.80;27.67;;;256.10;2150.40;;;;;;5054240;28;20417;-71
2021/04/21 01:09:24;;;;;;;34.20;26.30;;;256.20;2150.40;;;;;;5053968;28;20334;-71
2021/04/21 01:11:58;;;;;;;40.20;29.50;;;256.20;2150.40;;;;;;5053910;28;20465;-72
2021/04/21 01:14:28;;;;;;;38.22;26.55;;;256.10;2150.40;;;;;;5053890;28;20365;-72
2021/04/21 01:17:02;;;;;;;39.13;27.38;;;256.10;2150.40;;;;;;5053843;28;20482;-72
2021/04/21 01:19:42;;;;;;;;;;;256.10;2150.40;;;;;;5054571;28;20035;-72
2021/04/21 01:22:20;;;;;;;36.72;25.08;;;256.00;2150.40;;;;;;5054086;28;20349;-72
2021/04/21 01:25:04;;;;;;;32.33;23.75;;;256.10;2150.40;;;;;;5054080;28;20397;-72
2021/04/21 01:27:48;;;;;;;35.83;24.52;;;256.00;2150.40;;;;;;5053660;28;20468;-71
2021/04/21 01:30:20;;;;;;;31.40;23.38;;;256.10;2150.40;;;;;;5053910;28;20408;-72
2021/04/21 01:32:50;;;;;;;31.02;23.63;;;256.10;2150.40;;;;;;5053697;28;20536;-71
2021/04/21 01:35:20;;;;;;;33.38;23.42;;;256.00;2176.00;;;;;;5053676;28;20353;-71
2021/04/21 01:37:49;;;;;;;31.45;22.48;;;256.10;2150.40;;;;;;5053501;28;20420;-72
2021/04/21 01:40:35;;;;;;;36.33;23.95;;;256.00;2176.00;;;;;;5053528;28;20449;-72
2021/04/21 01:43:42;;;;;;;31.80;22.75;;;256.10;2176.00;;;;;;5035580;28;20412;-72
2021/04/21 01:46:12;;;;;;;31.85;21.88;;;256.00;2201.60;;;;;;4972615;28;20499;-73
2021/04/21 01:48:41;;;;;;;29.83;20.55;;;256.00;2201.60;;;;;;4972669;28;20461;-72
2021/04/21 01:51:20;;;;;;;31.92;20.75;;;231.30;2227.20;;;;;;4972700;28;20367;-72
2021/04/21 01:53:54;;;;;;;34.80;20.85;;;256.00;2201.60;;;;;;4956885;28;20361;-72
2021/04/21 01:56:31;;;;;;;29.95;22.20;;;256.00;2201.60;;;;;;4972962;28;20570;-71
2021/04/21 01:59:21;;;;;;;30.17;21.45;;;231.30;2227.20;;;;;;4972668;28;20452;-71
2021/04/21 02:01:56;;;;;;;27.00;19.83;;;256.10;2176.00;;;;;;4972799;28;20384;-72
2021/04/21 02:04:45;;;;;;;28.83;20.55;;;256.10;2201.60;;;;;;4955832;28;20496;-71
2021/04/21 02:07:26;;;;;;;30.77;20.05;;;256.10;2176.00;;;;;;4953249;29;20523;-71
2021/04/21 02:10:11;;;;;;;27.88;19.80;;;256.10;2176.00;;;;;;4953583;29;20500;-71
2021/04/21 02:13:12;;;;;;;28.27;19.85;;;256.10;2176.00;;;;;;4953123;29;20421;-72
2021/04/21 02:16:22;;;;;;;28.48;18.92;;;256.10;2176.00;;;;;;4955038;28;20379;-71
2021/04/21 02:18:57;;;;;;;28.60;19.67;;;256.10;2176.00;;;;;;4949415;29;20520;-71
2021/04/21 02:21:48;;;;;;;25.58;19.13;;;256.20;2150.40;;;;;;5037504;28;20348;-71
2021/04/21 02:24:41;;;;;;;25.90;18.10;;;256.10;2150.40;;;;;;5037463;28;20079;-71
2021/04/21 02:27:34;;;;;;;27.10;18.73;;;256.10;2150.40;;;;;;5037416;28;20026;-71
2021/04/21 02:30:26;;;;;;;27.27;18.52;;;256.00;2176.00;;;;;;5037407;28;20370;-71
2021/04/21 02:33:16;;;;;;;27.10;18.08;;;256.10;2150.40;;;;;;5037069;28;20362;-72
2021/04/21 02:35:49;;;;;;;26.75;18.77;;;256.00;2150.40;;;;;;5036981;28;20512;-72
2021/04/21 02:38:28;;;;;;;24.08;18.40;;;256.10;2150.40;;;;;;5036956;28;20362;-72
2021/04/21 02:41:08;;;;;;;29.13;18.88;;;256.10;2150.40;;;;;;5036845;28;20507;-71
2021/04/21 02:44:06;;;;;;;26.63;19.23;;;256.00;2150.40;;;;;;5036929;28;20410;-71
2021/04/21 02:46:53;;;;;;;26.13;18.77;;;231.30;2176.00;;;;;;5018968;28;20116;-71
2021/04/21 02:49:38;;;;;;;24.88;17.83;;;231.30;2176.00;;;;;;5036737;28;20447;-71
2021/04/21 02:52:10;;;;;;;26.40;17.75;;;231.30;2176.00;;;;;;5036942;28;20018;-72
2021/04/21 02:55:06;;;;;;;26.63;18.48;;;256.00;2176.00;;;;;;5036705;28;20362;-72
2021/04/21 02:57:48;;;;;;;26.60;19.02;;;231.30;2176.00;;;;;;5027412;28;20037;-72
2021/04/21 03:00:20;;;;;;;23.85;17.55;;;231.30;2176.00;;;;;;5036518;28;20351;-71
2021/04/21 03:03:10;;;;;;;24.02;17.25;;;231.30;2176.00;;;;;;5040153;28;20470;-71
2021/04/21 03:05:41;;;;;;;26.27;17.90;;;231.30;2176.00;;;;;;5056376;28;20449;-72
2021/04/21 03:08:27;;;;;;;24.30;17.38;;;231.30;2176.00;;;;;;5056516;28;20347;-71
2021/04/21 03:11:08;;;;;;;27.13;17.77;;;231.30;2176.00;;;;;;5056317;28;20354;-72
2021/04/21 03:13:48;;;;;;;27.00;18.42;;;231.20;2176.00;;;;;;5056316;28;20410;-72
2021/04/21 03:16:19;;;;;;;26.08;18.50;;;231.20;2176.00;;;;;;5056172;28;20361;-72
2021/04/21 03:18:46;;;;;;;24.52;18.20;;;231.20;2201.60;;;;;;5056511;28;20441;-72
2021/04/21 03:21:21;;;;;;;23.25;17.52;;;231.20;2176.00;;;;;;5056366;28;20373;-71
2021/04/21 03:23:54;;;;;;;25.20;18.02;;;231.20;2176.00;;;;;;5056041;28;20365;-71
2021/04/21 03:26:22;;;;;;;25.40;17.92;;;231.20;2176.00;;;;;;5054869;28;20457;-71
2021/04/21 03:28:54;;;;;;;26.55;18.92;;;231.20;2176.00;;;;;;5055976;28;20409;-71
2021/04/21 03:31:22;;;;;;;28.90;19.35;;;231.10;2176.00;;;;;;5055932;28;20365;-73
2021/04/21 03:34:01;;;;;;;27.77;18.98;;;231.20;2176.00;;;;;;5055804;28;20374;-72
2021/04/21 03:36:29;;;;;;;31.00;21.02;;;231.20;2176.00;;;;;;5055737;28;20479;-71
2021/04/21 03:38:55;;;;;;;29.33;20.13;;;231.20;2176.00;;;;;;5037852;28;20021;-72
2021/04/21 03:41:22;;;;;;;33.20;20.13;;;256.00;2150.40;;;;;;5055735;28;20420;-71
2021/04/21 03:43:49;;;;;;;27.08;19.10;;;231.20;2150.40;;;;;;5055668;28;20347;-71
2021/04/21 03:46:16;;;;;;;28.33;19.38;;;231.20;2150.40;;;;;;5055548;28;20361;-72
2021/04/21 03:48:44;;;;;;;26.85;19.40;;;231.30;2150.40;;;;;;5055597;28;20421;-72
2021/04/21 03:51:12;;;;;;;28.33;19.13;;;231.20;2150.40;;;;;;5055515;28;20395;-71
2021/04/21 03:53:42;;;;;;;39.35;23.83;;;231.10;2176.00;;;;;;5055546;28;20469;-71
2021/04/21 03:56:21;;;;;;;33.03;22.08;;;231.00;2150.40;;;;;;5037560;28;20368;-71
2021/04/21 03:58:50;;;;;;;37.00;20.38;;;231.10;2150.40;;;;;;5055685;28;20381;-71
2021/04/21 04:01:20;;;;;;;33.05;21.33;;;231.10;2150.40;;;;;;5055359;28;20043;-72
2021/04/21 04:03:52;;;;;;;31.33;20.33;;;231.10;2150.40;;;;;;5055084;28;20473;-71
2021/04/21 04:06:33;;;;;;;30.52;19.88;;;231.10;2150.40;;;;;;5055511;28;20398;-71
2021/04/21 04:09:02;;;;;;;38.95;21.85;;;231.00;2150.40;;;;;;5055469;28;20343;-72
2021/04/21 04:11:41;;;;;;;35.00;21.63;;;231.00;2150.40;;;;;;5055149;28;20365;-71
2021/04/21 04:14:21;;;;;;;33.50;21.40;;;231.00;2176.00;;;;;;5055119;28;20521;-71
2021/04/21 04:16:51;;;;;;;30.17;21.05;;;231.10;2176.00;;;;;;5055074;28;20354;-71
2021/04/21 04:19:18;;;;;;;32.55;20.77;;;231.00;2150.40;;;;;;5055088;28;20370;-71
2021/04/21 04:21:53;;;;;;;31.42;22.13;;;231.00;2176.00;;;;;;5054941;28;20409;-71
2021/04/21 04:24:22;;;;;;;33.42;21.02;;;231.10;2150.40;;;;;;5055151;28;20404;-71
2021/04/21 04:26:49;;;;;;;31.98;23.15;;;231.10;2150.40;;;;;;5054778;28;20492;-71
2021/04/21 04:29:16;;;;;;;31.60;21.55;;;231.30;2150.40;;;;;;5036911;28;20361;-71
2021/04/21 04:31:42;;;;;;;33.47;22.50;;;231.30;2150.40;;;;;;5054735;28;20469;-71
2021/04/21 04:34:10;;;;;;;30.05;21.45;;;256.00;2150.40;;;;;;5054792;28;20362;-73
2021/04/21 04:36:39;;;;;;;31.20;21.90;;;256.00;2124.80;;;;;;5054850;28;20416;-71
2021/04/21 04:39:07;;;;;;;32.22;21.23;;;256.10;2124.80;;;;;;5054577;28;20378;-72
2021/04/21 04:41:35;;;;;;;30.75;21.38;;;256.20;2124.80;;;;;;5054548;28;20465;-71
2021/04/21 04:44:02;;;;;;;32.47;22.05;;;256.30;2124.80;;;;;;5054519;28;20359;-71
2021/04/21 04:46:35;;;;;;;36.90;24.23;;;256.30;2150.40;;;;;;5054408;28;20090;-72
2021/04/21 04:49:09;;;;;;;34.08;23.88;;;256.30;2150.40;;;;;;5037040;28;20037;-72
2021/04/21 04:51:38;;;;;;;38.97;22.70;;;256.40;2150.40;;;;;;5054464;28;20421;-71
2021/04/21 04:54:05;;;;;;;37.17;24.38;;;256.40;2176.00;;;;;;5054283;28;20457;-72
2021/04/21 04:56:35;;;;;;;38.08;24.58;;;256.50;2150.40;;;;;;5054294;28;20366;-72
2021/04/21 04:59:08;;;;;;;43.70;22.45;;;256.30;2150.40;;;;;;5054274;28;20403;-72
2021/04/21 05:01:49;;;;;;;57.40;25.23;;;256.50;2150.40;;;;;;5054244;28;20458;-71
2021/04/21 05:04:22;;;;;;;40.95;27.25;;;256.40;2176.00;;;;;;5053986;28;20376;-73
2021/04/21 05:06:58;;;;;;;41.30;27.00;;;256.60;2150.40;;;;;;5054062;28;20496;-71
2021/04/21 05:09:28;;;;;;;45.92;29.25;;;256.60;2150.40;;;;;;5054351;28;20362;-72
2021/04/21 05:11:58;;;;;;;46.13;29.40;;;256.60;2176.00;;;;;;5054028;28;20458;-72
2021/04/21 05:14:25;;;;;;;39.17;25.63;;;256.60;2176.00;;;;;;5054029;28;20419;-71
2021/04/21 05:17:00;;;;;;;34.22;24.63;;;256.60;2201.60;;;;;;5053901;28;20457;-72
2021/04/21 05:20:08;;;;;;;38.90;24.98;;;256.60;2176.00;;;;;;5053866;28;20461;-72
2021/04/21 05:23:03;;;;;;;39.42;24.13;;;256.60;2201.60;;;;;;5016327;28;20382;-72
2021/04/21 05:25:51;;;;;;;34.85;23.83;;;256.70;2176.00;;;;;;5036713;28;20411;-72
2021/04/21 05:28:51;;;;;;;32.22;23.10;;;256.80;2201.60;;;;;;5053902;28;20448;-71
2021/04/21 05:31:30;;;;;;;34.28;24.23;;;256.90;2176.00;;;;;;5053732;28;20442;-71
2021/04/21 05:34:32;;;;;;;32.88;22.13;;;256.70;2227.20;;;;;;5053977;28;20465;-73
2021/04/21 05:37:36;;;;;;;39.17;24.25;;;256.90;2201.60;;;;;;5053654;28;20368;-72
2021/04/21 05:40:26;;;;;;;39.63;24.83;;;256.80;2201.60;;;;;;5053816;28;20369;-71
2021/04/21 05:43:33;;;;;;;32.90;23.20;;;256.90;2201.60;;;;;;5035698;28;20430;-71
2021/04/21 05:47:07;;;;;;;40.67;25.05;;;281.60;2227.20;;;;;;5053413;28;20412;-72
2021/04/21 05:50:07;;;;;;;34.22;23.77;;;281.70;2227.20;;;;;;4972268;28;20337;-71
2021/04/21 05:53:03;;;;;;;31.38;21.38;;;281.70;2227.20;;;;;;4972701;28;20375;-72
2021/04/21 05:55:31;;;;;;;37.45;24.15;;;281.80;2227.20;;;;;;4972964;28;20389;-71
2021/04/21 05:58:21;;;;;;;34.03;24.75;;;281.80;2252.80;;;;;;4972597;28;20368;-71
2021/04/21 06:01:06;;;;;;;34.00;23.67;;;281.70;2278.40;;;;;;4956613;28;20372;-71
2021/04/21 06:03:35;;;;;;;33.67;22.70;;;281.60;2278.40;;;;;;4962624;28;20484;-72
2021/04/21 06:06:03;;;;;;;31.80;23.67;;;281.70;2252.80;;;;;;4953139;29;20546;-71
2021/04/21 06:08:30;;;;;;;32.35;21.98;;;281.70;2278.40;;;;;;4953216;29;20040;-71
2021/04/21 06:14:21;;;;;;;37.10;25.25;;;281.80;2278.40;;;;;;4953481;29;20023;-71
2021/04/21 06:16:47;;;;;;;35.85;23.15;;;281.90;2252.80;;;;;;4953407;29;20397;-71
2021/04/21 06:19:14;;;;;;;31.30;22.80;;;281.90;2278.40;;;;;;4973896;28;20374;-71
2021/04/21 06:21:41;;;;;;;31.65;22.70;;;281.90;2278.40;;;;;;5015461;28;20017;-71
2021/04/21 06:24:25;;;;;;;33.20;22.75;;;282.00;2278.40;;;;;;5033150;28;20366;-71
2021/04/21 06:27:11;;;;;;;32.97;21.42;;;282.10;2278.40;;;;;;5033242;28;20458;-71
2021/04/21 06:29:39;;;;;;;31.98;20.35;;;282.10;2278.40;;;;;;5032910;28;20366;-71
2021/04/21 06:32:07;;;;;;;31.73;21.23;;;282.10;2278.40;;;;;;5032967;28;20371;-71
2021/04/21 06:34:34;;;;;;;29.17;20.55;;;282.10;2278.40;;;;;;5033298;28;20442;-71
2021/04/21 06:37:01;;;;;;;28.90;20.92;;;282.20;2278.40;;;;;;5015261;28;20366;-71
2021/04/21 06:39:30;;;;;;;31.35;24.02;;;282.20;2278.40;;;;;;5032992;28;20464;-70
2021/04/21 06:41:59;;;;;;;41.47;27.83;;;282.20;2278.40;;;;;;5033034;28;20476;-71
2021/04/21 06:44:42;;;;;;;31.35;21.30;;;282.30;2252.80;;;;;;5033071;28;20470;-72
2021/04/21 06:47:26;;;;;;;28.17;20.05;;;282.40;2278.40;;;;;;5032963;28;20560;-71
2021/04/21 06:50:07;;;;;;;29.17;20.20;;;282.40;2252.80;;;;;;5032881;28;20372;-72
2021/04/21 06:52:35;;;;;;;29.52;20.83;;;282.40;2252.80;;;;;;5032982;28;20422;-72
2021/04/21 06:55:13;;;;;;;29.58;20.42;;;282.50;2252.80;;;;;;5032932;28;20523;-71
2021/04/21 06:57:40;;;;;;;32.53;21.73;;;307.20;2278.40;;;;;;5033307;28;20034;-71
2021/04/21 07:00:07;;;;;;;33.08;20.17;;;307.30;2278.40;;;;;;5033526;28;20410;-73
2021/04/21 07:02:45;;;;;;;25.48;20.13;;;307.30;2278.40;;;;;;5021028;28;20351;-72
2021/04/21 07:05:36;;;;;;;27.63;20.02;;;307.40;2278.40;;;;;;5056576;28;20381;-73
2021/04/21 07:08:18;;;;;;;26.10;19.42;;;307.40;2252.80;;;;;;5038526;28;20032;-72
2021/04/21 07:10:52;;;;;;;31.50;19.98;;;307.50;2227.20;;;;;;5056769;28;20446;-73
2021/04/21 07:13:20;;;;;;;;;;;307.70;2227.20;;;;;;5056753;28;20455;-72
2021/04/21 07:15:49;;;;;;;29.10;20.45;;;308.00;2201.60;;;;;;5038439;28;20264;-72
2021/04/21 07:18:18;;;;;;;27.13;20.15;;;333.00;2176.00;;;;;;5056824;28;20454;-72
2021/04/21 07:20:45;;;;;;;28.02;20.83;;;333.40;2150.40;;;;;;5056568;28;20480;-72
2021/04/21 07:23:16;;;;;;;30.25;19.98;;;333.60;2124.80;;;;;;5056448;28;20357;-72
2021/04/21 07:25:47;;;;;;;28.33;21.25;;;333.70;2099.20;;;;;;5056555;28;20476;-73
2021/04/21 07:28:15;;;;;;;29.67;21.17;;;358.50;2099.20;;;;;;5055933;28;20381;-72
2021/04/21 07:30:41;;;;;;;28.15;20.30;;;358.70;2073.60;;;;;;5056263;28;20021;-72
2021/04/21 07:33:09;;;;;;;25.35;19.88;;;358.80;2073.60;;;;;;5055951;28;20374;-72
2021/04/21 07:35:35;;;;;;;24.48;19.90;;;358.90;2048.00;;;;;;5055918;28;20412;-73
2021/04/21 07:38:01;;;;;;;30.58;22.83;;;359.00;2048.00;;;;;;5055842;28;20377;-72
2021/04/21 07:40:32;;;;;;;28.20;21.45;;;359.10;2048.00;;;;;;5055798;28;20445;-72
2021/04/21 07:43:12;;;;;;;24.70;19.95;;;359.30;2022.40;;;;;;5055728;28;20454;-72
2021/04/21 07:45:57;;;;;;;28.10;21.77;;;359.30;1996.80;;;;;;5055701;28;20440;-72
2021/04/21 07:48:39;;;;;;;33.80;20.77;;;384.00;2022.40;;;;;;5055616;28;20473;-73
2021/04/21 07:51:25;;;;;;;24.70;20.40;;;384.20;1945.60;;;;;;5055649;28;20396;-74
2021/04/21 07:54:07;;;;;;;28.73;20.70;;;384.20;1971.20;;;;;;5041972;28;20486;-74
2021/04/21 07:56:51;;;;;;;28.17;21.55;;;384.40;1945.60;;;;;;5037748;28;20473;-73
2021/04/21 07:59:23;;;;;;;25.95;20.88;;;384.50;1945.60;;;;;;5055622;28;20369;-73
2021/04/21 08:01:50;;;;;;;25.73;21.48;;;384.50;1920.00;;;;;;5055453;28;20544;-74
2021/04/21 08:04:25;;;;;;;24.73;20.35;;;384.60;1894.40;;;;;;5037516;28;20489;-73
2021/04/21 08:06:55;;;;;;;29.80;21.55;;;384.60;1868.80;;;;;;5055230;28;20490;-73
2021/04/21 08:09:22;;;;;;;32.00;20.85;;;384.70;1894.40;;;;;;5055630;28;20457;-73
2021/04/21 08:12:07;;;;;;;25.25;19.33;;;384.80;1894.40;;;;;;5054663;28;20462;-74
2021/04/21 08:14:38;;;;;;;29.35;19.88;;;384.80;1817.60;;;;;;5037438;28;20412;-73
2021/04/21 08:17:05;;;;;;;23.65;19.48;;;384.90;1766.40;;;;;;5055146;28;20361;-72
2021/04/21 08:19:37;;;;;;;20.38;16.95;;;409.60;1843.20;;;;;;5055212;28;20483;-73
2021/04/21 08:22:04;;;;;;;25.55;19.48;;;409.60;1792.00;;;;;;5055461;28;20059;-73
2021/04/21 08:24:43;;;;;;;22.55;17.52;;;409.60;1817.60;;;;;;5055016;28;20487;-72
2021/04/21 08:27:12;;;;;;;30.58;23.10;;;409.60;1766.40;;;;;;5054915;28;20381;-71
2021/04/21 08:29:39;;;;;;;21.75;18.90;;;409.70;1817.60;;;;;;5055187;28;20493;-71
2021/04/21 08:32:06;;;;;;;19.38;17.02;;;409.80;1766.40;;;;;;5054929;28;20371;-72
2021/04/21 08:34:32;;;;;;;29.50;23.35;;;409.90;1740.80;;;;;;5054692;28;20055;-72
2021/04/21 08:36:58;;;;;;;25.40;20.05;;;410.00;1766.40;;;;;;5054777;28;20374;-72
2021/04/21 08:39:24;;;;;;;23.38;19.27;;;410.10;1740.80;;;;;;5054846;28;20364;-71
2021/04/21 08:41:57;;;;;;;21.20;18.85;;;410.10;1715.20;;;;;;5054482;28;20116;-72
2021/04/21 08:44:26;;;;;;;20.08;16.58;;;410.20;1638.40;;;;;;5054634;28;20497;-72
2021/04/21 08:46:55;;;;;;;21.88;16.02;;;410.20;1664.00;;;;;;5054406;28;20072;-71
2021/04/21 08:49:23;;;;;;;19.70;16.98;;;410.20;1664.00;;;;;;5054615;28;20373;-72
2021/04/21 08:51:53;;;;;;;37.75;26.02;;;410.20;1689.60;;;;;;5055051;28;20327;-72
2021/04/21 08:54:23;;;;;;;20.10;16.88;;;410.00;1664.00;;;;;;5054489;28;20408;-72
2021/04/21 08:56:50;;;;;;;17.70;15.68;;;410.10;1664.00;;;;;;5054699;28;20531;-73
2021/04/21 08:59:16;;;;;;;18.27;16.10;;;410.00;1664.00;;;;;;5054269;28;20411;-71
2021/04/21 09:01:45;;;;;;;20.40;16.23;;;410.10;1638.40;;;;;;5054175;28;20391;-71
2021/04/21 09:04:17;;;;;;;19.38;16.65;;;410.30;1689.60;;;;;;5033095;28;20455;-71
2021/04/21 09:06:48;;;;;;;21.17;18.90;;;410.30;1689.60;;;;;;5034167;28;20367;-70
2021/04/21 09:09:18;;;;;;;25.15;18.80;;;410.30;1689.60;;;;;;5034203;28;20478;-73
2021/04/21 09:11:46;;;;;;;19.08;14.82;;;410.30;1689.60;;;;;;5034145;28;20421;-71
2021/04/21 09:14:13;;;;;;;23.58;17.42;;;410.40;1638.40;;;;;;5034292;28;20462;-71
2021/04/21 09:16:39;;;;;;;38.63;26.55;;;410.40;1612.80;;;;;;5033914;28;20346;-71
2021/04/21 09:19:15;;;;;;;28.60;20.50;;;410.40;1612.80;;;;;;5033978;28;20466;-72
2021/04/21 09:21:42;;;;;;;20.70;15.20;;;410.50;1536.00;;;;;;5034139;28;20404;-72
2021/04/21 09:24:27;;;;;;;19.38;14.25;;;410.50;1536.00;;;;;;5033196;28;20594;-72
2021/04/21 09:26:54;;;;;;;20.38;14.75;;;435.30;1561.60;;;;;;5034193;28;20401;-72
2021/04/21 09:29:33;;;;;;;38.10;28.38;;;435.30;1561.60;;;;;;5034181;28;20350;-72
2021/04/21 09:32:10;;;;;;;53.80;25.98;;;435.20;1587.20;;;;;;5033808;28;20438;-71
2021/04/21 09:34:36;;;;;;;20.58;14.13;;;435.30;1536.00;;;;;;5033863;28;20362;-72
2021/04/21 09:37:03;;;;;;;16.33;14.40;;;435.40;1561.60;;;;;;5033755;28;20427;-71
2021/04/21 09:39:37;;;;;;;18.00;13.70;;;435.50;1536.00;;;;;;5034506;28;20381;-72
2021/04/21 09:42:04;;;;;;;17.17;14.45;;;435.50;1536.00;;;;;;5033813;28;20474;-72
2021/04/21 09:44:31;;;;;;;17.55;14.52;;;435.50;1561.60;;;;;;5033722;28;20427;-72
2021/04/21 09:47:00;;;;;;;17.55;15.25;;;435.80;1561.60;;;;;;5033539;28;20036;-73
2021/04/21 09:49:36;;;;;;;18.88;15.18;;;435.80;1536.00;;;;;;5033550;28;20072;-73
2021/04/21 09:52:11;;;;;;;18.17;16.27;;;435.90;1536.00;;;;;;5033441;28;20444;-71
2021/04/21 09:54:41;;;;;;;36.95;21.95;;;435.80;1561.60;;;;;;5033804;28;20089;-72
2021/04/21 09:57:09;;;;;;;20.48;17.42;;;435.80;1587.20;;;;;;5033519;28;20371;-72
2021/04/21 09:59:36;;;;;;;38.67;26.13;;;435.90;1587.20;;;;;;5033373;28;20021;-72
2021/04/21 10:02:02;;;;;;;31.17;22.70;;;436.00;1587.20;;;;;;5033354;28;20485;-73
2021/04/21 10:04:29;;;;;;;39.47;25.55;;;435.90;1536.00;;;;;;5050691;28;20481;-72
2021/04/21 10:07:01;;;;;;;35.03;28.48;;;435.90;1587.20;;;;;;5052994;28;20362;-73
2021/04/21 10:09:38;;;;;;;35.15;28.30;;;435.90;1561.60;;;;;;5053266;28;20031;-73
2021/04/21 10:12:22;;;;;;;20.42;16.90;;;435.90;1561.60;;;;;;5035547;28;20381;-73
2021/04/21 10:15:10;;;;;;;59.95;28.02;;;435.90;1536.00;;;;;;5053073;28;20444;-72
2021/04/21 10:17:41;;;;;;;30.63;24.15;;;436.00;1587.20;;;;;;5035996;28;20400;-71
2021/04/21 10:20:11;;;;;;;17.55;14.00;;;436.10;1536.00;;;;;;5035286;28;20381;-70
2021/04/21 10:22:39;;;;;;;19.45;14.25;;;436.10;1536.00;;;;;;5053191;28;20466;-71
2021/04/21 10:25:07;;;;;;;16.83;14.07;;;436.00;1459.20;;;;;;5053759;28;20457;-71
2021/04/21 10:27:34;;;;;;;24.23;15.65;;;436.10;1510.40;;;;;;5053042;28;20071;-71
2021/04/21 10:30:03;;;;;;;17.30;14.40;;;460.80;1536.00;;;;;;5053072;28;20384;-71
2021/04/21 10:32:31;;;;;;;19.73;15.65;;;436.10;1510.40;;;;;;5053023;28;20354;-72
2021/04/21 10:34:58;;;;;;;19.25;15.07;;;436.10;1510.40;;;;;;5053505;28;20477;-73
2021/04/21 10:37:25;;;;;;;17.50;14.32;;;436.10;1459.20;;;;;;5057356;28;20425;-71
2021/04/21 10:39:55;;;;;;;18.20;13.35;;;436.10;1459.20;;;;;;5056926;28;20343;-71
2021/04/21 10:42:22;;;;;;;15.18;12.40;;;460.80;1459.20;;;;;;5057044;28;20052;-74
2021/04/21 10:44:51;;;;;;;14.07;11.90;;;460.90;1433.60;;;;;;5057020;28;20358;-72
2021/04/21 10:47:23;;;;;;;21.60;16.70;;;461.00;1408.00;;;;;;5056891;28;20473;-71
2021/04/21 10:50:00;;;;;;;17.48;14.48;;;461.10;1408.00;;;;;;5056853;28;20388;-75
2021/04/21 10:52:26;;;;;;;18.42;14.77;;;461.20;1408.00;;;;;;5057090;28;20338;-77
2021/04/21 10:55:11;;;;;;;19.38;15.77;;;461.30;1382.40;;;;;;5056696;28;20460;-71
2021/04/21 10:57:42;;;;;;;20.88;15.52;;;461.30;1382.40;;;;;;5056667;28;20416;-72
2021/04/21 11:00:28;;;;;;;18.63;15.27;;;461.40;1382.40;;;;;;5056711;28;20366;-72
2021/04/21 11:03:08;;;;;;;16.50;13.82;;;461.30;1382.40;;;;;;5056273;28;20500;-72
2021/04/21 11:05:37;;;;;;;16.52;14.00;;;461.20;1382.40;;;;;;5056432;28;20055;-73
2021/04/21 11:08:10;;;;;;;15.43;13.68;;;461.20;1382.40;;;;;;5056406;28;20354;-72
2021/04/21 11:10:39;;;;;;;17.90;14.43;;;461.30;1408.00;;;;;;5057079;28;20013;-72
2021/04/21 11:13:06;;;;;;;17.50;14.50;;;461.20;1408.00;;;;;;5056255;28;20351;-72
2021/04/21 11:15:42;;;;;;;17.08;13.93;;;461.10;1408.00;;;;;;5056292;28;20471;-72
2021/04/21 11:18:08;;;;;;;18.38;13.90;;;461.10;1408.00;;;;;;5056505;28;20361;-72
2021/04/21 11:20:46;;;;;;;17.23;14.35;;;461.20;1382.40;;;;;;5056151;28;20365;-72
2021/04/21 11:23:53;;;;;;;17.17;13.38;;;461.30;1382.40;;;;;;5056220;28;20377;-71
2021/04/21 11:26:26;;;;;;;22.77;17.60;;;461.50;1382.40;;;;;;5055518;28;20378;-71
2021/04/21 11:28:59;;;;;;;21.98;16.10;;;461.50;1408.00;;;;;;5056141;28;20373;-72
2021/04/21 11:31:44;;;;;;;21.85;16.55;;;461.30;1433.60;;;;;;5056208;28;20404;-72
2021/04/21 11:34:27;;;;;;;18.25;14.10;;;461.20;1433.60;;;;;;5056338;28;20338;-72
2021/04/21 11:37:00;;;;;;;42.55;34.70;;;461.00;1408.00;;;;;;5056060;28;20412;-71
2021/04/21 11:39:44;;;;;;;26.13;20.48;;;461.10;1433.60;;;;;;5056009;28;20390;-70
2021/04/21 11:42:40;;;;;;;31.83;21.83;;;460.90;1433.60;;;;;;5055945;28;20350;-72
2021/04/21 11:45:20;;;;;;;25.75;16.45;;;460.90;1459.20;;;;;;5055908;28;20426;-71
2021/04/21 11:48:12;;;;;;;18.75;15.00;;;460.80;1459.20;;;;;;5054665;28;20428;-71
2021/04/21 11:50:41;;;;;;;18.23;14.88;;;460.80;1459.20;;;;;;5042582;28;20365;-71
2021/04/21 11:53:07;;;;;;;16.42;13.57;;;436.10;1459.20;;;;;;5055572;28;20347;-73
2021/04/21 11:55:57;;;;;;;19.30;12.70;;;436.10;1356.80;;;;;;5055677;28;20433;-71
2021/04/21 11:58:37;;;;;;;15.35;12.93;;;436.10;1382.40;;;;;;5055888;28;20365;-73
2021/04/21 12:01:06;;;;;;;18.50;13.60;;;436.10;1382.40;;;;;;5055831;28;20400;-73
2021/04/21 12:03:37;;;;;;;21.00;14.13;;;436.10;1356.80;;;;;;5055366;28;20040;-71
2021/04/21 12:06:11;;;;;;;17.05;13.95;;;436.10;1408.00;;;;;;5055405;28;20416;-73
2021/04/21 12:08:39;;;;;;;13.35;10.68;;;436.10;1331.20;;;;;;5055461;28;20419;-73
2021/04/21 12:11:07;;;;;;;13.50;11.40;;;460.80;1356.80;;;;;;5055337;28;20361;-76
2021/04/21 12:13:35;;;;;;;15.35;11.20;;;460.90;1331.20;;;;;;5055295;28;20366;-71
2021/04/21 12:16:30;;;;;;;15.38;11.13;;;461.20;1331.20;;;;;;5055117;28;20471;-71
2021/04/21 12:19:00;;;;;;;14.05;10.63;;;461.50;1305.60;;;;;;5055425;28;20480;-71
2021/04/21 12:21:29;;;;;;;15.73;12.10;;;461.50;1280.00;;;;;;5055141;28;20530;-71
2021/04/21 12:24:00;;;;;;;25.25;15.05;;;461.50;1280.00;;;;;;5055019;28;20029;-71
2021/04/21 12:26:47;;;;;;;19.75;12.90;;;461.40;1254.40;;;;;;5037077;28;20480;-71
2021/04/21 12:29:21;;;;;;;16.52;11.73;;;461.30;1280.00;;;;;;5055050;28;20393;-71
2021/04/21 12:31:47;;;;;;;23.17;12.98;;;461.10;1382.40;;;;;;5055233;28;20369;-71
2021/04/21 12:34:20;;;;;;;29.35;18.30;;;460.80;1459.20;;;;;;5054907;28;20472;-72
2021/04/21 12:36:48;;;;;;;22.42;15.43;;;436.00;1536.00;;;;;;5054879;28;20369;-73
2021/04/21 12:39:22;;;;;;;33.20;16.25;;;435.70;1536.00;;;;;;5054895;28;20048;-72